Airfield :
LOGIN :

Register | Disclaimer

   EN    FR    IT 

 










Legend :    VFR   Marginal VFR   IFR   Intensive IFR   Very Intensive IFR
Visi :
Ceiling :
>= 8 km
>= 3000ft
5 to 8 km
1000 to 3000 ft
1500m to 5 km
500 to 1000 ft
800 to 1500m
200 to 500 ft
< 800m
< 200 ft
Symbols :   Thunderstorms  Fog  Heavy snow  Heavy precipitations  Wind > 20 kt
SIGMETs :     Misc.  Thunderstorms  Icing  Turbulence  Mountain Waves  Volcanic Ashes






- Airport Elevation : 1682 ft
- IATA code : VIT


LEVT - Vitoria Gasteiz

CURRENT METAR :
  • 201900Z 15017G29KT 120V180 9999 -RA FEW017 SCT025 16/13 Q1001

EXPIRED METARs :
  • 201830Z 15019G34KT 9999 FEW017 SCT025 17/13 Q1001
  • 201800Z 15018KT 110V190 9999 FEW017 SCT025 17/12 Q1001
  • 201730Z 15016G29KT 110V180 9999 FEW015 SCT025 OVC065 18/12 Q1001
  • 201700Z 14014G27KT 100V170 9999 FEW015 SCT025 OVC065 17/12 Q1001

TAF TAF LEVT
Valid from the 20 at 18:00 until the 21 at 18:00 UTC


201700Z 2018/2118 17015G25KT 9999 SCT015 SCT025 BKN070 TX18/2023Z TN12/2107Z
TEMPO 2018/2114 17020G35KT
PROB40
TEMPO 2018/2103 17030G46KT
TEMPO 2100/2104 4000 RA
TEMPO 2112/2118 4000 RA



MET'MAP, your aeronautical weather chart ! - Copyright ORBIFLY December 2007 - Disclaimer

ORBIFLY MET'MAP TEAM :

Programming & Development : Alexandra Zaïnal
Concept & original design : Baudouin d'Aumeries
Assistance for programming : Marc-Olivier Méhu
Technical & hardware support : Manuel Goepfert

Contact : metmap@orbifly.com




SOURCES & CREDITS :

   NOAA